createdAt,value
2022-11-26T00:02:20.570Z,19.44
2022-11-26T00:05:16.958Z,19.38
2022-11-26T00:08:20.897Z,19.38
2022-11-26T00:11:17.442Z,19.38
2022-11-26T00:14:17.068Z,19.38
2022-11-26T00:17:11.708Z,19.38
2022-11-26T00:20:07.863Z,19.38
2022-11-26T00:23:03.374Z,19.38
2022-11-26T00:25:59.804Z,19.38
2022-11-26T00:28:56.755Z,19.38
2022-11-26T00:31:51.657Z,19.38
2022-11-26T00:34:46.615Z,19.38
2022-11-26T00:37:44.534Z,19.31
2022-11-26T00:40:39.536Z,19.31
2022-11-26T00:43:34.250Z,19.31
2022-11-26T00:46:29.141Z,19.31
2022-11-26T00:49:24.372Z,19.31
2022-11-26T00:52:28.746Z,19.31
2022-11-26T00:55:33.101Z,19.31
2022-11-26T00:58:30.535Z,19.31
2022-11-26T01:01:27.545Z,19.31
2022-11-26T01:04:22.255Z,19.31
2022-11-26T01:07:17.102Z,19.31
2022-11-26T01:10:21.210Z,19.38
2022-11-26T01:13:15.967Z,19.38
2022-11-26T01:16:19.958Z,19.38
2022-11-26T01:19:16.380Z,19.38
2022-11-26T01:22:13.424Z,19.31
2022-11-26T01:25:08.975Z,19.38
2022-11-26T01:28:03.873Z,19.31
2022-11-26T01:30:58.892Z,19.31
2022-11-26T01:33:54.078Z,19.31
2022-11-26T01:36:48.885Z,19.31
2022-11-26T01:39:43.896Z,19.31
2022-11-26T01:42:44.004Z,19.31
2022-11-26T01:45:38.786Z,19.31
2022-11-26T01:48:35.887Z,19.31
2022-11-26T01:51:31.205Z,19.31
2022-11-26T01:54:25.860Z,19.31
2022-11-26T01:57:23.395Z,19.31
2022-11-26T02:00:21.097Z,19.31
2022-11-26T02:03:16.148Z,19.31
2022-11-26T02:06:13.386Z,19.25
2022-11-26T02:09:10.360Z,19.31
2022-11-26T02:12:05.153Z,19.31
2022-11-26T02:15:00.107Z,19.31
2022-11-26T02:17:56.512Z,19.31
2022-11-26T02:20:56.285Z,19.31
2022-11-26T02:24:18.116Z,19.31
2022-11-26T02:27:38.959Z,19.31
2022-11-26T02:30:33.813Z,19.31
2022-11-26T02:33:31.237Z,19.31
2022-11-26T02:36:29.596Z,19.31
2022-11-26T02:39:26.249Z,19.31
2022-11-26T02:42:31.183Z,19.31
2022-11-26T02:45:27.475Z,19.25
2022-11-26T02:48:23.536Z,19.25
2022-11-26T02:51:18.338Z,19.25
2022-11-26T02:54:13.337Z,19.25
2022-11-26T02:57:10.486Z,19.25
2022-11-26T03:00:05.574Z,19.25
2022-11-26T03:03:03.353Z,19.25
2022-11-26T03:06:00.488Z,19.25
2022-11-26T03:08:56.091Z,19.25
2022-11-26T03:11:50.766Z,19.25
2022-11-26T03:14:45.801Z,19.19
2022-11-26T03:17:40.530Z,19.19
2022-11-26T03:20:35.325Z,19.19
2022-11-26T03:23:30.131Z,19.25
2022-11-26T03:26:24.783Z,19.25
2022-11-26T03:29:19.533Z,19.25
2022-11-26T03:32:14.233Z,19.25
2022-11-26T03:35:10.451Z,19.25
2022-11-26T03:38:05.412Z,19.25
2022-11-26T03:41:04.759Z,19.25
2022-11-26T03:43:59.520Z,19.25
2022-11-26T03:46:54.219Z,19.25
2022-11-26T03:49:49.113Z,19.25
2022-11-26T03:52:43.842Z,19.25
2022-11-26T03:55:38.572Z,19.25
2022-11-26T03:58:33.228Z,19.25
2022-11-26T04:01:28.003Z,19.19
2022-11-26T04:04:22.905Z,19.19
2022-11-26T04:07:18.222Z,19.19
2022-11-26T04:10:14.859Z,19.19
2022-11-26T04:13:09.831Z,19.19
2022-11-26T04:16:04.480Z,19.19
2022-11-26T04:18:59.155Z,19.19
2022-11-26T04:21:53.830Z,19.19
2022-11-26T04:24:48.524Z,19.19
2022-11-26T04:27:43.218Z,19.19
2022-11-26T04:30:38.097Z,19.13
2022-11-26T04:33:34.666Z,19.13
2022-11-26T04:36:29.764Z,19.13
2022-11-26T04:39:24.514Z,19.13
2022-11-26T04:42:19.354Z,19.19
2022-11-26T04:45:15.472Z,19.13
2022-11-26T04:48:09.716Z,19.13
2022-11-26T04:51:04.736Z,19.19
2022-11-26T04:54:02.767Z,19.19
2022-11-26T04:56:58.299Z,19.19
2022-11-26T04:59:53.329Z,19.19
2022-11-26T05:02:48.195Z,19.19
2022-11-26T05:05:43.897Z,19.13
2022-11-26T05:08:38.955Z,19.13
2022-11-26T05:11:33.513Z,19.13
2022-11-26T05:14:28.435Z,19.13
2022-11-26T05:17:23.103Z,19.13
2022-11-26T05:20:18.605Z,19.13
2022-11-26T05:23:13.240Z,19.13
2022-11-26T05:26:08.375Z,19.13
2022-11-26T05:29:03.090Z,19.13
2022-11-26T05:31:58.095Z,19.13
2022-11-26T05:34:57.015Z,19.13
2022-11-26T05:37:54.602Z,19.13
2022-11-26T05:40:49.372Z,19.13
2022-11-26T05:43:44.226Z,19.13
2022-11-26T05:46:39.318Z,19.13
2022-11-26T05:49:33.879Z,19.13
2022-11-26T05:52:28.855Z,18.94
2022-11-26T05:55:23.635Z,18.94
2022-11-26T05:58:18.356Z,19.00
2022-11-26T06:01:13.791Z,19.00
2022-11-26T06:04:08.863Z,19.06
2022-11-26T06:07:03.647Z,19.06
2022-11-26T06:09:58.346Z,19.06
2022-11-26T06:12:53.260Z,19.06
2022-11-26T06:15:48.072Z,19.06
2022-11-26T06:18:42.797Z,19.06
2022-11-26T06:21:37.770Z,19.13
2022-11-26T06:24:32.806Z,19.13
2022-11-26T06:27:27.473Z,19.13
2022-11-26T06:30:22.601Z,19.13
2022-11-26T06:33:17.217Z,19.13
2022-11-26T06:36:12.407Z,19.06
2022-11-26T06:39:07.066Z,19.13
2022-11-26T06:42:01.853Z,19.13
2022-11-26T06:44:59.835Z,19.06
2022-11-26T06:47:55.489Z,19.06
2022-11-26T06:50:50.511Z,19.06
2022-11-26T06:53:45.350Z,19.06
2022-11-26T06:56:40.039Z,19.06
2022-11-26T06:59:35.039Z,19.06
2022-11-26T07:02:29.818Z,19.06
2022-11-26T07:05:24.596Z,19.06
2022-11-26T07:08:19.269Z,19.06
2022-11-26T07:11:14.268Z,19.06
2022-11-26T07:14:09.066Z,19.06
2022-11-26T07:17:03.884Z,19.13
2022-11-26T07:19:58.687Z,19.13
2022-11-26T07:22:53.497Z,19.13
2022-11-26T07:25:48.372Z,19.13
2022-11-26T07:28:43.251Z,19.13
2022-11-26T07:31:38.030Z,19.06
2022-11-26T07:34:32.740Z,19.06
2022-11-26T07:37:27.351Z,19.06
2022-11-26T07:40:23.066Z,19.06
2022-11-26T07:43:18.089Z,19.06
2022-11-26T07:46:14.537Z,19.06
2022-11-26T07:49:09.650Z,19.06
2022-11-26T07:52:08.319Z,19.13
2022-11-26T07:55:05.907Z,19.13
2022-11-26T07:58:03.054Z,19.13
2022-11-26T08:00:57.862Z,19.13
2022-11-26T08:03:53.093Z,19.13
2022-11-26T08:06:47.843Z,19.13
2022-11-26T08:09:42.644Z,19.13
2022-11-26T08:12:37.425Z,19.06
2022-11-26T08:15:32.497Z,19.06
2022-11-26T08:18:27.313Z,19.06
2022-11-26T08:21:22.060Z,19.06
2022-11-26T08:24:18.739Z,19.06
2022-11-26T08:27:13.671Z,19.06
2022-11-26T08:30:11.404Z,19.06
2022-11-26T08:33:06.394Z,19.06
2022-11-26T08:36:08.808Z,19.00
2022-11-26T08:39:03.801Z,19.06
2022-11-26T08:41:58.319Z,19.06
2022-11-26T08:44:54.485Z,19.06
2022-11-26T08:47:47.501Z,19.06
2022-11-26T08:50:42.319Z,19.06
2022-11-26T08:53:37.599Z,19.06
2022-11-26T08:56:32.271Z,19.06
2022-11-26T08:59:27.073Z,19.06
2022-11-26T09:02:21.874Z,19.06
2022-11-26T09:05:17.161Z,19.06
2022-11-26T09:08:12.007Z,19.06
2022-11-26T09:11:07.232Z,19.06
2022-11-26T09:14:01.944Z,19.06
2022-11-26T09:16:56.684Z,19.06
2022-11-26T09:19:51.439Z,19.06
2022-11-26T09:22:46.083Z,19.06
2022-11-26T09:25:42.635Z,19.06
2022-11-26T09:28:37.355Z,19.06
2022-11-26T09:31:32.202Z,19.13
2022-11-26T09:34:27.142Z,19.06
2022-11-26T09:37:22.049Z,19.06
2022-11-26T09:40:21.611Z,19.13
2022-11-26T09:43:23.460Z,19.06
2022-11-26T09:46:18.175Z,19.13
2022-11-26T09:49:14.547Z,19.13
2022-11-26T09:52:10.038Z,19.13
2022-11-26T09:55:14.049Z,19.13
2022-11-26T09:58:16.433Z,19.13
2022-11-26T10:01:14.787Z,19.13
2022-11-26T10:04:16.621Z,19.13
2022-11-26T10:07:22.062Z,19.13
2022-11-26T10:10:19.927Z,19.13
2022-11-26T10:13:22.407Z,19.13
2022-11-26T10:16:24.765Z,19.13
2022-11-26T10:19:22.068Z,19.13
2022-11-26T10:22:20.407Z,19.13
2022-11-26T10:25:21.241Z,19.13
2022-11-26T10:28:22.593Z,19.13
2022-11-26T10:31:23.165Z,19.06
2022-11-26T10:34:20.658Z,19.06
2022-11-26T10:37:15.200Z,19.06
2022-11-26T10:40:21.908Z,19.06
2022-11-26T10:43:21.070Z,19.13
2022-11-26T10:46:30.970Z,19.13
2022-11-26T10:49:29.512Z,19.13
2022-11-26T10:52:26.236Z,19.13
2022-11-26T10:55:29.226Z,19.13
2022-11-26T10:58:25.353Z,19.13
2022-11-26T11:01:18.694Z,19.13
2022-11-26T11:04:30.754Z,19.13
2022-11-26T11:07:45.288Z,19.19
2022-11-26T11:10:39.980Z,19.19
2022-11-26T11:13:47.270Z,19.19
2022-11-26T11:16:46.689Z,19.19
2022-11-26T11:19:41.521Z,19.19
2022-11-26T11:22:36.552Z,19.19
2022-11-26T11:25:33.687Z,19.19
2022-11-26T11:28:31.187Z,19.19
2022-11-26T11:31:27.095Z,19.19
2022-11-26T11:34:25.217Z,19.19
2022-11-26T11:37:21.961Z,19.19
2022-11-26T11:40:25.323Z,19.19
2022-11-26T11:43:22.722Z,19.19
2022-11-26T11:46:49.499Z,19.19
2022-11-26T11:49:59.059Z,19.19
2022-11-26T11:53:17.467Z,19.25
2022-11-26T11:56:35.478Z,19.25
2022-11-26T11:59:58.572Z,19.25
2022-11-26T12:03:10.583Z,19.25
2022-11-26T12:06:14.623Z,19.25
2022-11-26T12:09:18.548Z,19.25
2022-11-26T12:12:18.497Z,19.25
2022-11-26T12:15:22.744Z,19.25
2022-11-26T12:18:23.768Z,19.25
2022-11-26T12:21:20.805Z,19.25
2022-11-26T12:24:21.829Z,19.25
2022-11-26T12:27:26.122Z,19.25
2022-11-26T12:30:24.415Z,19.25
2022-11-26T12:33:21.964Z,19.25
2022-11-26T12:36:22.072Z,19.25
2022-11-26T12:39:28.452Z,19.25
2022-11-26T12:42:26.895Z,19.25
2022-11-26T12:45:28.428Z,19.31
2022-11-26T12:48:40.486Z,19.31
2022-11-26T12:51:38.283Z,19.31
2022-11-26T12:54:35.070Z,19.06
2022-11-26T12:57:31.505Z,19.00
2022-11-26T13:00:35.428Z,19.13
2022-11-26T13:03:33.683Z,19.13
2022-11-26T13:06:43.889Z,19.19
2022-11-26T13:09:51.534Z,19.19
2022-11-26T13:12:52.754Z,19.25
2022-11-26T13:15:50.984Z,19.25
2022-11-26T13:18:49.093Z,19.31
2022-11-26T13:21:59.574Z,19.31
2022-11-26T13:25:12.986Z,19.31
2022-11-26T13:28:17.745Z,19.31
2022-11-26T13:31:26.365Z,19.31
2022-11-26T13:34:31.236Z,19.31
2022-11-26T13:37:45.473Z,19.31
2022-11-26T13:40:58.678Z,19.31
2022-11-26T13:44:40.316Z,19.31
2022-11-26T13:47:37.436Z,19.31
2022-11-26T13:50:35.397Z,19.31
2022-11-26T13:53:32.923Z,19.31
2022-11-26T13:56:32.354Z,19.31
2022-11-26T13:59:39.844Z,19.38
2022-11-26T14:02:47.758Z,19.31
2022-11-26T14:06:12.086Z,19.31
2022-11-26T14:09:06.971Z,19.31
2022-11-26T14:12:02.166Z,19.31
2022-11-26T14:14:56.940Z,19.31
2022-11-26T14:18:00.917Z,19.31
2022-11-26T14:21:17.897Z,19.31
2022-11-26T14:24:11.041Z,19.31
2022-11-26T14:27:05.879Z,19.25
2022-11-26T14:30:11.839Z,19.25
2022-11-26T14:33:21.948Z,19.25
2022-11-26T14:36:24.721Z,19.25
2022-11-26T14:39:19.986Z,19.25
2022-11-26T14:42:19.964Z,19.25
2022-11-26T14:45:21.214Z,19.25
2022-11-26T14:48:26.286Z,19.25
2022-11-26T14:51:25.581Z,19.25
2022-11-26T14:54:22.988Z,19.25
2022-11-26T14:57:22.361Z,19.25
2022-11-26T15:00:27.326Z,19.25
2022-11-26T15:03:27.643Z,19.25
2022-11-26T15:06:34.987Z,19.25
2022-11-26T15:09:30.675Z,19.25
2022-11-26T15:12:25.337Z,19.31
2022-11-26T15:15:21.640Z,19.31
2022-11-26T15:18:16.325Z,19.31
2022-11-26T15:21:16.718Z,19.25
2022-11-26T15:24:12.432Z,19.25
2022-11-26T15:27:07.554Z,19.25
2022-11-26T15:30:02.481Z,19.25
2022-11-26T15:33:04.026Z,19.25
2022-11-26T15:35:59.265Z,19.25
2022-11-26T15:39:08.471Z,19.25
2022-11-26T15:42:08.057Z,19.31
2022-11-26T15:45:02.769Z,19.31
2022-11-26T15:47:57.892Z,19.31
2022-11-26T15:50:53.012Z,19.31
2022-11-26T15:53:50.788Z,19.31
2022-11-26T15:56:45.813Z,19.31
2022-11-26T15:59:47.386Z,19.31
2022-11-26T16:02:43.153Z,19.31
2022-11-26T16:05:40.058Z,19.31
2022-11-26T16:08:35.309Z,19.31
2022-11-26T16:11:31.129Z,19.31
2022-11-26T16:14:37.645Z,19.31
2022-11-26T16:17:32.586Z,19.31
2022-11-26T16:20:29.110Z,19.31
2022-11-26T16:23:30.056Z,19.31
2022-11-26T16:26:25.109Z,19.31
2022-11-26T16:29:19.828Z,19.31
2022-11-26T16:32:14.423Z,19.31
2022-11-26T16:35:37.595Z,19.31
2022-11-26T16:38:26.517Z,19.31
2022-11-26T16:41:22.263Z,19.31
2022-11-26T16:44:16.900Z,19.31
2022-11-26T16:47:16.462Z,19.31
2022-11-26T16:50:16.833Z,19.31
2022-11-26T16:53:12.873Z,19.31
2022-11-26T16:56:06.047Z,19.31
2022-11-26T16:59:02.711Z,19.31
2022-11-26T17:01:57.809Z,19.31
2022-11-26T17:04:52.765Z,19.31
2022-11-26T17:07:49.497Z,19.31
2022-11-26T17:10:45.201Z,19.38
2022-11-26T17:13:40.096Z,19.38
2022-11-26T17:16:35.237Z,19.38
2022-11-26T17:19:30.057Z,19.38
2022-11-26T17:22:24.928Z,19.38
2022-11-26T17:25:19.719Z,19.38
2022-11-26T17:28:16.749Z,19.38
2022-11-26T17:31:11.571Z,19.38
2022-11-26T17:34:06.428Z,19.38
2022-11-26T17:37:02.200Z,19.31
2022-11-26T17:39:56.940Z,19.38
2022-11-26T17:42:52.017Z,19.38
2022-11-26T17:45:46.729Z,19.38
2022-11-26T17:48:41.604Z,19.38
2022-11-26T17:51:36.528Z,19.38
2022-11-26T17:54:31.361Z,19.38
2022-11-26T17:57:28.419Z,19.38
2022-11-26T18:00:28.358Z,19.38
2022-11-26T18:03:23.121Z,19.38
2022-11-26T18:06:21.247Z,19.44
2022-11-26T18:09:15.995Z,19.38
2022-11-26T18:12:20.166Z,19.38
2022-11-26T18:15:23.685Z,19.44
2022-11-26T18:18:18.952Z,19.44
2022-11-26T18:21:14.118Z,19.38
2022-11-26T18:24:11.413Z,19.44
2022-11-26T18:27:06.345Z,19.44
2022-11-26T18:30:01.258Z,19.44
2022-11-26T18:32:56.152Z,19.44
2022-11-26T18:35:53.432Z,19.44
2022-11-26T18:38:48.079Z,19.50
2022-11-26T18:41:42.820Z,19.50
2022-11-26T18:44:37.782Z,19.50
2022-11-26T18:47:32.708Z,19.56
2022-11-26T18:50:27.984Z,19.50
2022-11-26T18:53:22.592Z,19.50
2022-11-26T18:56:19.422Z,19.50
2022-11-26T18:59:15.247Z,19.50
2022-11-26T19:02:11.952Z,19.50
2022-11-26T19:05:08.243Z,19.50
2022-11-26T19:08:03.250Z,19.50
2022-11-26T19:10:58.044Z,19.50
2022-11-26T19:13:52.859Z,19.50
2022-11-26T19:16:49.520Z,19.50
2022-11-26T19:19:44.376Z,19.56
2022-11-26T19:22:39.185Z,19.56
2022-11-26T19:25:33.948Z,19.56
2022-11-26T19:28:30.904Z,19.56
2022-11-26T19:31:26.942Z,19.56
2022-11-26T19:34:19.948Z,19.56
2022-11-26T19:37:15.094Z,19.56
2022-11-26T19:40:13.013Z,19.56
2022-11-26T19:43:07.868Z,19.56
2022-11-26T19:46:08.946Z,19.56
2022-11-26T19:49:03.763Z,19.56
2022-11-26T19:51:58.788Z,19.56
2022-11-26T19:54:53.440Z,19.56
2022-11-26T19:57:48.074Z,19.56
2022-11-26T20:00:42.940Z,19.56
2022-11-26T20:03:38.045Z,19.56
2022-11-26T20:06:33.905Z,19.56
2022-11-26T20:09:28.784Z,19.56
2022-11-26T20:12:23.919Z,19.56
2022-11-26T20:15:18.771Z,19.56
2022-11-26T20:18:14.016Z,19.56
2022-11-26T20:21:11.423Z,19.56
2022-11-26T20:24:12.619Z,19.56
2022-11-26T20:27:07.340Z,19.56
2022-11-26T20:30:02.199Z,19.56
2022-11-26T20:32:56.722Z,19.56
2022-11-26T20:35:51.668Z,19.56
2022-11-26T20:38:46.588Z,19.56
2022-11-26T20:41:41.953Z,19.56
2022-11-26T20:44:37.072Z,19.56
2022-11-26T20:47:32.178Z,19.63
2022-11-26T20:50:27.236Z,19.63
2022-11-26T20:53:22.204Z,19.63
2022-11-26T20:56:18.052Z,19.63
2022-11-26T20:59:12.739Z,19.56
2022-11-26T21:02:07.470Z,19.63
2022-11-26T21:05:02.446Z,19.63
2022-11-26T21:07:57.760Z,19.63
2022-11-26T21:10:52.997Z,19.63
2022-11-26T21:13:48.327Z,19.63
2022-11-26T21:16:43.109Z,19.56
2022-11-26T21:19:38.165Z,19.56
2022-11-26T21:22:33.396Z,19.56
2022-11-26T21:25:28.223Z,19.56
2022-11-26T21:28:24.527Z,19.56
2022-11-26T21:31:19.745Z,19.56
2022-11-26T21:34:15.880Z,19.56
2022-11-26T21:37:08.894Z,19.56
2022-11-26T21:40:03.822Z,19.50
2022-11-26T21:42:59.036Z,19.50
2022-11-26T21:45:54.175Z,19.50
2022-11-26T21:48:48.877Z,19.44
2022-11-26T21:51:43.657Z,19.44
2022-11-26T21:54:38.395Z,19.50
2022-11-26T21:57:34.991Z,19.44
2022-11-26T22:00:29.536Z,19.50
2022-11-26T22:03:24.428Z,19.50
2022-11-26T22:06:19.623Z,19.50
2022-11-26T22:09:14.482Z,19.50
2022-11-26T22:12:11.396Z,19.56
2022-11-26T22:15:07.308Z,19.56
2022-11-26T22:18:02.521Z,19.56
2022-11-26T22:20:57.524Z,19.56
2022-11-26T22:23:52.256Z,19.56
2022-11-26T22:26:46.884Z,19.56
2022-11-26T22:29:41.937Z,19.56
2022-11-26T22:32:37.965Z,19.50
2022-11-26T22:35:32.848Z,19.50
2022-11-26T22:38:27.626Z,19.50
2022-11-26T22:41:22.461Z,19.50
2022-11-26T22:44:17.860Z,19.50
2022-11-26T22:47:12.513Z,19.50
2022-11-26T22:50:09.769Z,19.50
2022-11-26T22:53:06.761Z,19.50
2022-11-26T22:56:03.257Z,19.50
2022-11-26T22:58:58.357Z,19.50
2022-11-26T23:01:55.757Z,19.50
2022-11-26T23:04:50.565Z,19.44
2022-11-26T23:07:45.628Z,19.44
2022-11-26T23:10:40.344Z,19.44
2022-11-26T23:13:34.900Z,19.44
2022-11-26T23:16:30.217Z,19.44
2022-11-26T23:19:24.932Z,19.50
2022-11-26T23:22:20.080Z,19.50
2022-11-26T23:25:15.852Z,19.50
2022-11-26T23:28:11.184Z,19.50
2022-11-26T23:31:07.153Z,19.50
2022-11-26T23:34:02.023Z,19.50
2022-11-26T23:36:56.772Z,19.50
2022-11-26T23:39:51.815Z,19.50
2022-11-26T23:42:46.508Z,19.50
2022-11-26T23:45:41.104Z,19.50
2022-11-26T23:48:35.798Z,19.50
2022-11-26T23:51:32.568Z,19.50
2022-11-26T23:54:27.550Z,19.50
2022-11-26T23:57:22.050Z,19.44
